sensor_id;sensor_type;location;lat;lon;timestamp;pressure;altitude;pressure_sealevel;temperature
76895;BMP280;65855;42.030;13.078;2023-06-22T00:01:52;94278.47;;;18.57
76895;BMP280;65855;42.030;13.078;2023-06-22T00:04:18;94287.63;;;19.15
76895;BMP280;65855;42.030;13.078;2023-06-22T00:06:44;94290.16;;;19.15
76895;BMP280;65855;42.030;13.078;2023-06-22T00:09:09;94288.53;;;18.25
76895;BMP280;65855;42.030;13.078;2023-06-22T00:11:43;94298.88;;;17.67
76895;BMP280;65855;42.030;13.078;2023-06-22T00:14:16;94307.00;;;17.35
76895;BMP280;65855;42.030;13.078;2023-06-22T00:16:45;94307.91;;;17.23
76895;BMP280;65855;42.030;13.078;2023-06-22T00:19:15;94307.75;;;17.36
76895;BMP280;65855;42.030;13.078;2023-06-22T00:21:40;94304.00;;;17.17
76895;BMP280;65855;42.030;13.078;2023-06-22T00:24:07;94301.91;;;17.19
76895;BMP280;65855;42.030;13.078;2023-06-22T00:26:35;94298.41;;;16.82
76895;BMP280;65855;42.030;13.078;2023-06-22T00:29:01;94297.31;;;16.66
76895;BMP280;65855;42.030;13.078;2023-06-22T00:31:27;94302.63;;;16.39
76895;BMP280;65855;42.030;13.078;2023-06-22T00:33:52;94305.16;;;16.39
76895;BMP280;65855;42.030;13.078;2023-06-22T00:36:18;94299.03;;;16.40
76895;BMP280;65855;42.030;13.078;2023-06-22T00:38:44;94302.81;;;16.51
76895;BMP280;65855;42.030;13.078;2023-06-22T00:41:10;94302.78;;;16.43
76895;BMP280;65855;42.030;13.078;2023-06-22T00:43:35;94294.59;;;16.16
76895;BMP280;65855;42.030;13.078;2023-06-22T00:46:01;94298.63;;;16.47
76895;BMP280;65855;42.030;13.078;2023-06-22T00:48:30;94297.94;;;16.33
76895;BMP280;65855;42.030;13.078;2023-06-22T00:50:58;94293.28;;;16.27
76895;BMP280;65855;42.030;13.078;2023-06-22T00:53:24;94292.06;;;16.16
76895;BMP280;65855;42.030;13.078;2023-06-22T00:55:50;94291.59;;;16.14
76895;BMP280;65855;42.030;13.078;2023-06-22T00:58:19;94294.47;;;16.21
76895;BMP280;65855;42.030;13.078;2023-06-22T01:00:51;94288.78;;;16.24
76895;BMP280;65855;42.030;13.078;2023-06-22T01:03:17;94282.81;;;15.98
76895;BMP280;65855;42.030;13.078;2023-06-22T01:05:50;94283.75;;;16.02
76895;BMP280;65855;42.030;13.078;2023-06-22T01:08:27;94279.00;;;15.87
76895;BMP280;65855;42.030;13.078;2023-06-22T01:10:59;94281.28;;;16.19
76895;BMP280;65855;42.030;13.078;2023-06-22T01:13:39;94276.00;;;16.07
76895;BMP280;65855;42.030;13.078;2023-06-22T01:16:30;94281.25;;;16.11
76895;BMP280;65855;42.030;13.078;2023-06-22T01:18:59;94286.97;;;16.16
76895;BMP280;65855;42.030;13.078;2023-06-22T01:21:30;94288.09;;;16.02
76895;BMP280;65855;42.030;13.078;2023-06-22T01:24:15;94283.28;;;16.00
76895;BMP280;65855;42.030;13.078;2023-06-22T01:29:15;94286.78;;;15.83
76895;BMP280;65855;42.030;13.078;2023-06-22T01:31:44;94287.44;;;16.18
76895;BMP280;65855;42.030;13.078;2023-06-22T01:34:11;94280.44;;;16.02
76895;BMP280;65855;42.030;13.078;2023-06-22T01:36:38;94287.28;;;15.93
76895;BMP280;65855;42.030;13.078;2023-06-22T01:39:08;94284.69;;;15.85
76895;BMP280;65855;42.030;13.078;2023-06-22T01:41:36;94279.06;;;15.96
76895;BMP280;65855;42.030;13.078;2023-06-22T01:44:06;94279.66;;;15.41
76895;BMP280;65855;42.030;13.078;2023-06-22T01:46:34;94278.34;;;15.74
76895;BMP280;65855;42.030;13.078;2023-06-22T01:49:02;94268.84;;;15.87
76895;BMP280;65855;42.030;13.078;2023-06-22T01:51:28;94265.63;;;15.95
76895;BMP280;65855;42.030;13.078;2023-06-22T01:53:54;94268.03;;;16.38
76895;BMP280;65855;42.030;13.078;2023-06-22T01:56:20;94265.03;;;16.36
76895;BMP280;65855;42.030;13.078;2023-06-22T01:59:25;94254.44;;;16.51
76895;BMP280;65855;42.030;13.078;2023-06-22T02:01:57;94252.63;;;16.43
76895;BMP280;65855;42.030;13.078;2023-06-22T02:04:30;94246.84;;;16.76
76895;BMP280;65855;42.030;13.078;2023-06-22T02:06:59;94242.06;;;16.75
76895;BMP280;65855;42.030;13.078;2023-06-22T02:09:29;94244.63;;;16.91
76895;BMP280;65855;42.030;13.078;2023-06-22T02:11:56;94230.66;;;17.47
76895;BMP280;65855;42.030;13.078;2023-06-22T02:14:23;94231.44;;;17.14
76895;BMP280;65855;42.030;13.078;2023-06-22T02:16:51;94236.22;;;16.91
76895;BMP280;65855;42.030;13.078;2023-06-22T02:19:16;94238.59;;;16.71
76895;BMP280;65855;42.030;13.078;2023-06-22T02:21:44;94244.81;;;16.32
76895;BMP280;65855;42.030;13.078;2023-06-22T02:24:10;94243.75;;;16.33
76895;BMP280;65855;42.030;13.078;2023-06-22T02:26:37;94243.78;;;16.03
76895;BMP280;65855;42.030;13.078;2023-06-22T02:29:03;94248.69;;;15.99
76895;BMP280;65855;42.030;13.078;2023-06-22T02:31:29;94247.59;;;16.13
76895;BMP280;65855;42.030;13.078;2023-06-22T02:34:15;94247.16;;;15.60
76895;BMP280;65855;42.030;13.078;2023-06-22T02:36:47;94239.56;;;15.38
76895;BMP280;65855;42.030;13.078;2023-06-22T02:39:20;94241.53;;;15.41
76895;BMP280;65855;42.030;13.078;2023-06-22T02:42:16;94243.91;;;15.38
76895;BMP280;65855;42.030;13.078;2023-06-22T02:44:49;94246.69;;;15.50
76895;BMP280;65855;42.030;13.078;2023-06-22T02:47:15;94245.13;;;15.40
76895;BMP280;65855;42.030;13.078;2023-06-22T02:49:41;94239.38;;;15.35
76895;BMP280;65855;42.030;13.078;2023-06-22T02:52:07;94246.25;;;15.35
76895;BMP280;65855;42.030;13.078;2023-06-22T02:54:33;94249.97;;;15.29
76895;BMP280;65855;42.030;13.078;2023-06-22T02:57:07;94246.59;;;15.41
76895;BMP280;65855;42.030;13.078;2023-06-22T02:59:46;94248.00;;;15.47
76895;BMP280;65855;42.030;13.078;2023-06-22T03:02:12;94254.34;;;15.37
76895;BMP280;65855;42.030;13.078;2023-06-22T03:04:38;94249.06;;;15.25
76895;BMP280;65855;42.030;13.078;2023-06-22T03:07:13;94258.63;;;15.28
76895;BMP280;65855;42.030;13.078;2023-06-22T03:09:48;94254.34;;;15.37
76895;BMP280;65855;42.030;13.078;2023-06-22T03:12:25;94257.81;;;15.40
76895;BMP280;65855;42.030;13.078;2023-06-22T03:15:10;94260.53;;;15.22
76895;BMP280;65855;42.030;13.078;2023-06-22T03:17:39;94262.22;;;15.27
76895;BMP280;65855;42.030;13.078;2023-06-22T03:20:49;94264.75;;;14.79
76895;BMP280;65855;42.030;13.078;2023-06-22T03:23:15;94270.28;;;14.94
76895;BMP280;65855;42.030;13.078;2023-06-22T03:26:16;94257.69;;;15.02
76895;BMP280;65855;42.030;13.078;2023-06-22T03:28:42;94262.41;;;14.82
76895;BMP280;65855;42.030;13.078;2023-06-22T03:31:21;94263.81;;;14.88
76895;BMP280;65855;42.030;13.078;2023-06-22T03:33:47;94273.53;;;14.73
76895;BMP280;65855;42.030;13.078;2023-06-22T03:36:18;94263.06;;;14.88
76895;BMP280;65855;42.030;13.078;2023-06-22T03:38:58;94267.09;;;14.89
76895;BMP280;65855;42.030;13.078;2023-06-22T03:41:24;94261.44;;;14.91
76895;BMP280;65855;42.030;13.078;2023-06-22T03:43:50;94265.09;;;15.12
76895;BMP280;65855;42.030;13.078;2023-06-22T03:46:16;94260.13;;;15.29
76895;BMP280;65855;42.030;13.078;2023-06-22T03:49:11;94256.84;;;15.28
76895;BMP280;65855;42.030;13.078;2023-06-22T03:51:37;94257.41;;;15.04
76895;BMP280;65855;42.030;13.078;2023-06-22T03:54:03;94256.72;;;15.33
76895;BMP280;65855;42.030;13.078;2023-06-22T03:56:31;94259.94;;;15.47
76895;BMP280;65855;42.030;13.078;2023-06-22T03:58:56;94260.34;;;15.40
76895;BMP280;65855;42.030;13.078;2023-06-22T04:01:22;94263.16;;;15.31
76895;BMP280;65855;42.030;13.078;2023-06-22T04:03:48;94251.06;;;15.36
76895;BMP280;65855;42.030;13.078;2023-06-22T04:06:15;94251.53;;;15.68
76895;BMP280;65855;42.030;13.078;2023-06-22T04:08:40;94248.16;;;15.81
76895;BMP280;65855;42.030;13.078;2023-06-22T04:11:06;94253.28;;;16.19
76895;BMP280;65855;42.030;13.078;2023-06-22T04:13:32;94248.75;;;15.78
76895;BMP280;65855;42.030;13.078;2023-06-22T04:15:57;94237.66;;;16.42
76895;BMP280;65855;42.030;13.078;2023-06-22T04:18:23;94245.81;;;17.02
76895;BMP280;65855;42.030;13.078;2023-06-22T04:20:49;94245.38;;;16.92
76895;BMP280;65855;42.030;13.078;2023-06-22T04:23:14;94241.56;;;17.73
76895;BMP280;65855;42.030;13.078;2023-06-22T04:25:40;94239.16;;;17.68
76895;BMP280;65855;42.030;13.078;2023-06-22T04:28:06;94234.28;;;17.38
76895;BMP280;65855;42.030;13.078;2023-06-22T04:30:37;94242.84;;;17.08
76895;BMP280;65855;42.030;13.078;2023-06-22T04:33:15;94236.66;;;17.01
76895;BMP280;65855;42.030;13.078;2023-06-22T04:35:41;94239.34;;;16.71
76895;BMP280;65855;42.030;13.078;2023-06-22T04:38:07;94240.41;;;16.79
76895;BMP280;65855;42.030;13.078;2023-06-22T04:40:33;94245.38;;;17.00
76895;BMP280;65855;42.030;13.078;2023-06-22T04:42:59;94252.09;;;16.96
76895;BMP280;65855;42.030;13.078;2023-06-22T04:45:28;94252.44;;;17.03
76895;BMP280;65855;42.030;13.078;2023-06-22T04:47:57;94235.31;;;17.29
76895;BMP280;65855;42.030;13.078;2023-06-22T04:50:26;94250.91;;;17.52
76895;BMP280;65855;42.030;13.078;2023-06-22T04:52:51;94248.50;;;17.64
76895;BMP280;65855;42.030;13.078;2023-06-22T04:55:18;94245.47;;;17.62
76895;BMP280;65855;42.030;13.078;2023-06-22T04:57:48;94250.22;;;17.88
76895;BMP280;65855;42.030;13.078;2023-06-22T05:00:18;94253.16;;;18.07
76895;BMP280;65855;42.030;13.078;2023-06-22T05:02:59;94250.88;;;17.69
76895;BMP280;65855;42.030;13.078;2023-06-22T05:05:35;94253.13;;;18.24
76895;BMP280;65855;42.030;13.078;2023-06-22T05:08:06;94243.47;;;18.01
76895;BMP280;65855;42.030;13.078;2023-06-22T05:10:33;94248.28;;;18.30
76895;BMP280;65855;42.030;13.078;2023-06-22T05:30:24;94245.69;;;19.79
76895;BMP280;65855;42.030;13.078;2023-06-22T05:32:49;94252.13;;;19.97
76895;BMP280;65855;42.030;13.078;2023-06-22T05:35:15;94252.25;;;20.36
76895;BMP280;65855;42.030;13.078;2023-06-22T05:37:40;94253.38;;;20.47
76895;BMP280;65855;42.030;13.078;2023-06-22T05:40:06;94245.97;;;20.80
76895;BMP280;65855;42.030;13.078;2023-06-22T05:42:32;94240.31;;;20.75
76895;BMP280;65855;42.030;13.078;2023-06-22T05:44:57;94250.81;;;21.09
76895;BMP280;65855;42.030;13.078;2023-06-22T05:47:24;94249.34;;;20.96
76895;BMP280;65855;42.030;13.078;2023-06-22T05:49:49;94250.63;;;21.67
76895;BMP280;65855;42.030;13.078;2023-06-22T05:52:14;94260.56;;;22.11
76895;BMP280;65855;42.030;13.078;2023-06-22T05:54:40;94262.13;;;22.46
76895;BMP280;65855;42.030;13.078;2023-06-22T05:57:06;94266.75;;;22.86
76895;BMP280;65855;42.030;13.078;2023-06-22T05:59:32;94263.88;;;23.25
76895;BMP280;65855;42.030;13.078;2023-06-22T06:01:57;94259.69;;;23.36
76895;BMP280;65855;42.030;13.078;2023-06-22T06:04:23;94262.09;;;23.62
76895;BMP280;65855;42.030;13.078;2023-06-22T06:06:48;94254.81;;;23.86
76895;BMP280;65855;42.030;13.078;2023-06-22T06:09:14;94246.50;;;23.74
76895;BMP280;65855;42.030;13.078;2023-06-22T06:11:40;94245.84;;;23.99
76895;BMP280;65855;42.030;13.078;2023-06-22T06:14:05;94252.00;;;24.61
76895;BMP280;65855;42.030;13.078;2023-06-22T06:16:31;94255.06;;;24.92
76895;BMP280;65855;42.030;13.078;2023-06-22T06:18:57;94252.63;;;25.02
76895;BMP280;65855;42.030;13.078;2023-06-22T06:21:23;94246.38;;;25.07
76895;BMP280;65855;42.030;13.078;2023-06-22T06:23:49;94250.78;;;25.03
76895;BMP280;65855;42.030;13.078;2023-06-22T06:26:14;94252.00;;;25.12
76895;BMP280;65855;42.030;13.078;2023-06-22T06:28:42;94243.06;;;25.35
76895;BMP280;65855;42.030;13.078;2023-06-22T06:31:07;94245.66;;;25.35
76895;BMP280;65855;42.030;13.078;2023-06-22T06:33:34;94242.38;;;25.70
76895;BMP280;65855;42.030;13.078;2023-06-22T06:35:59;94246.78;;;25.66
76895;BMP280;65855;42.030;13.078;2023-06-22T06:38:27;94239.94;;;25.84
76895;BMP280;65855;42.030;13.078;2023-06-22T06:40:52;94240.44;;;25.60
76895;BMP280;65855;42.030;13.078;2023-06-22T06:43:18;94236.28;;;26.24
76895;BMP280;65855;42.030;13.078;2023-06-22T06:45:44;94244.25;;;26.52
76895;BMP280;65855;42.030;13.078;2023-06-22T06:48:09;94254.28;;;26.56
76895;BMP280;65855;42.030;13.078;2023-06-22T06:50:35;94257.97;;;27.12
76895;BMP280;65855;42.030;13.078;2023-06-22T06:53:00;94250.75;;;27.45
76895;BMP280;65855;42.030;13.078;2023-06-22T06:55:26;94253.84;;;27.84
76895;BMP280;65855;42.030;13.078;2023-06-22T06:57:51;94242.56;;;27.36
76895;BMP280;65855;42.030;13.078;2023-06-22T07:00:18;94250.50;;;27.00
76895;BMP280;65855;42.030;13.078;2023-06-22T07:02:44;94257.84;;;27.61
76895;BMP280;65855;42.030;13.078;2023-06-22T07:05:11;94263.44;;;27.77
76895;BMP280;65855;42.030;13.078;2023-06-22T07:07:37;94253.19;;;28.22
76895;BMP280;65855;42.030;13.078;2023-06-22T07:10:04;94256.19;;;28.82
76895;BMP280;65855;42.030;13.078;2023-06-22T07:12:30;94254.50;;;27.57
76895;BMP280;65855;42.030;13.078;2023-06-22T07:15:06;94255.22;;;27.48
76895;BMP280;65855;42.030;13.078;2023-06-22T07:17:35;94251.75;;;28.48
76895;BMP280;65855;42.030;13.078;2023-06-22T07:20:01;94240.22;;;28.66
76895;BMP280;65855;42.030;13.078;2023-06-22T07:22:27;94249.09;;;28.99
76895;BMP280;65855;42.030;13.078;2023-06-22T07:24:52;94249.09;;;28.93
76895;BMP280;65855;42.030;13.078;2023-06-22T07:27:18;94251.28;;;29.25
76895;BMP280;65855;42.030;13.078;2023-06-22T07:29:46;94240.50;;;29.33
76895;BMP280;65855;42.030;13.078;2023-06-22T07:32:12;94242.66;;;29.55
76895;BMP280;65855;42.030;13.078;2023-06-22T07:34:37;94248.53;;;27.40
76895;BMP280;65855;42.030;13.078;2023-06-22T07:37:04;94251.97;;;27.78
76895;BMP280;65855;42.030;13.078;2023-06-22T07:39:30;94240.63;;;28.65
76895;BMP280;65855;42.030;13.078;2023-06-22T07:41:55;94237.72;;;29.74
76895;BMP280;65855;42.030;13.078;2023-06-22T07:44:20;94249.16;;;29.91
76895;BMP280;65855;42.030;13.078;2023-06-22T07:46:46;94242.13;;;30.44
76895;BMP280;65855;42.030;13.078;2023-06-22T07:49:12;94236.63;;;30.36
76895;BMP280;65855;42.030;13.078;2023-06-22T07:51:37;94241.41;;;30.87
76895;BMP280;65855;42.030;13.078;2023-06-22T07:54:02;94251.75;;;31.34
76895;BMP280;65855;42.030;13.078;2023-06-22T07:56:28;94243.75;;;31.15
76895;BMP280;65855;42.030;13.078;2023-06-22T07:58:53;94241.53;;;31.79
76895;BMP280;65855;42.030;13.078;2023-06-22T08:01:20;94246.31;;;31.51
76895;BMP280;65855;42.030;13.078;2023-06-22T08:03:48;94248.66;;;31.09
76895;BMP280;65855;42.030;13.078;2023-06-22T08:06:13;94247.06;;;31.18
76895;BMP280;65855;42.030;13.078;2023-06-22T08:08:39;94257.38;;;31.62
76895;BMP280;65855;42.030;13.078;2023-06-22T08:11:05;94253.13;;;30.69
76895;BMP280;65855;42.030;13.078;2023-06-22T08:13:31;94253.66;;;30.43
76895;BMP280;65855;42.030;13.078;2023-06-22T08:15:56;94252.09;;;29.96
76895;BMP280;65855;42.030;13.078;2023-06-22T08:18:22;94249.94;;;30.44
76895;BMP280;65855;42.030;13.078;2023-06-22T08:20:47;94254.66;;;31.39
76895;BMP280;65855;42.030;13.078;2023-06-22T08:23:12;94250.06;;;30.74
76895;BMP280;65855;42.030;13.078;2023-06-22T08:25:38;94250.88;;;31.43
76895;BMP280;65855;42.030;13.078;2023-06-22T08:28:04;94249.38;;;32.05
76895;BMP280;65855;42.030;13.078;2023-06-22T08:30:29;94249.00;;;31.11
76895;BMP280;65855;42.030;13.078;2023-06-22T08:32:55;94251.47;;;30.39
76895;BMP280;65855;42.030;13.078;2023-06-22T08:35:22;94255.69;;;30.19
76895;BMP280;65855;42.030;13.078;2023-06-22T08:37:48;94245.75;;;30.54
76895;BMP280;65855;42.030;13.078;2023-06-22T08:40:18;94248.56;;;30.30
76895;BMP280;65855;42.030;13.078;2023-06-22T08:42:45;94247.03;;;31.84
76895;BMP280;65855;42.030;13.078;2023-06-22T08:45:10;94247.31;;;32.90
76895;BMP280;65855;42.030;13.078;2023-06-22T08:47:36;94237.63;;;34.21
76895;BMP280;65855;42.030;13.078;2023-06-22T08:50:01;94232.50;;;34.64
76895;BMP280;65855;42.030;13.078;2023-06-22T08:52:30;94233.44;;;35.45
76895;BMP280;65855;42.030;13.078;2023-06-22T08:54:56;94240.28;;;35.95
76895;BMP280;65855;42.030;13.078;2023-06-22T08:57:21;94224.50;;;36.20
76895;BMP280;65855;42.030;13.078;2023-06-22T08:59:47;94239.97;;;36.42
76895;BMP280;65855;42.030;13.078;2023-06-22T09:02:12;94237.34;;;36.42
76895;BMP280;65855;42.030;13.078;2023-06-22T09:04:38;94245.13;;;35.81
76895;BMP280;65855;42.030;13.078;2023-06-22T09:07:03;94233.53;;;36.43
76895;BMP280;65855;42.030;13.078;2023-06-22T09:09:29;94235.72;;;36.32
76895;BMP280;65855;42.030;13.078;2023-06-22T09:11:55;94237.53;;;36.60
76895;BMP280;65855;42.030;13.078;2023-06-22T09:14:20;94234.38;;;36.16
76895;BMP280;65855;42.030;13.078;2023-06-22T09:16:45;94231.44;;;36.14
76895;BMP280;65855;42.030;13.078;2023-06-22T09:19:11;94231.84;;;37.07
76895;BMP280;65855;42.030;13.078;2023-06-22T09:21:37;94228.63;;;37.66
76895;BMP280;65855;42.030;13.078;2023-06-22T09:24:02;94230.28;;;37.51
76895;BMP280;65855;42.030;13.078;2023-06-22T09:26:28;94233.66;;;37.52
76895;BMP280;65855;42.030;13.078;2023-06-22T09:28:53;94231.81;;;37.40
76895;BMP280;65855;42.030;13.078;2023-06-22T09:31:19;94229.72;;;37.77
76895;BMP280;65855;42.030;13.078;2023-06-22T09:33:53;94229.22;;;37.49
76895;BMP280;65855;42.030;13.078;2023-06-22T09:36:22;94240.22;;;38.28
76895;BMP280;65855;42.030;13.078;2023-06-22T09:38:48;94239.78;;;38.30
76895;BMP280;65855;42.030;13.078;2023-06-22T09:41:14;94243.44;;;38.32
76895;BMP280;65855;42.030;13.078;2023-06-22T09:43:39;94245.00;;;38.51
76895;BMP280;65855;42.030;13.078;2023-06-22T09:46:05;94250.13;;;38.16
76895;BMP280;65855;42.030;13.078;2023-06-22T09:48:32;94236.38;;;38.59
76895;BMP280;65855;42.030;13.078;2023-06-22T09:50:57;94245.06;;;38.86
76895;BMP280;65855;42.030;13.078;2023-06-22T09:53:23;94245.75;;;38.22
76895;BMP280;65855;42.030;13.078;2023-06-22T09:55:48;94240.50;;;38.00
76895;BMP280;65855;42.030;13.078;2023-06-22T09:58:13;94240.34;;;37.95
76895;BMP280;65855;42.030;13.078;2023-06-22T10:00:39;94249.13;;;38.22
76895;BMP280;65855;42.030;13.078;2023-06-22T10:03:06;94239.50;;;38.07
76895;BMP280;65855;42.030;13.078;2023-06-22T10:05:32;94243.72;;;38.25
76895;BMP280;65855;42.030;13.078;2023-06-22T10:07:57;94239.94;;;38.35
76895;BMP280;65855;42.030;13.078;2023-06-22T10:10:23;94244.88;;;38.16
76895;BMP280;65855;42.030;13.078;2023-06-22T10:12:55;94243.72;;;38.25
76895;BMP280;65855;42.030;13.078;2023-06-22T10:15:22;94246.94;;;38.21
76895;BMP280;65855;42.030;13.078;2023-06-22T10:17:47;94238.53;;;38.52
76895;BMP280;65855;42.030;13.078;2023-06-22T10:20:13;94245.03;;;38.77
76895;BMP280;65855;42.030;13.078;2023-06-22T10:22:40;94238.63;;;38.78
76895;BMP280;65855;42.030;13.078;2023-06-22T10:25:06;94243.28;;;38.83
76895;BMP280;65855;42.030;13.078;2023-06-22T10:27:32;94249.75;;;38.82
76895;BMP280;65855;42.030;13.078;2023-06-22T10:29:58;94239.03;;;38.68
76895;BMP280;65855;42.030;13.078;2023-06-22T10:32:23;94240.56;;;39.57
76895;BMP280;65855;42.030;13.078;2023-06-22T10:34:48;94237.47;;;39.76
76895;BMP280;65855;42.030;13.078;2023-06-22T10:37:14;94244.13;;;39.37
76895;BMP280;65855;42.030;13.078;2023-06-22T10:39:39;94242.47;;;39.22
76895;BMP280;65855;42.030;13.078;2023-06-22T10:42:05;94237.63;;;39.20
76895;BMP280;65855;42.030;13.078;2023-06-22T10:44:30;94231.34;;;39.44
76895;BMP280;65855;42.030;13.078;2023-06-22T10:46:56;94228.69;;;39.35
76895;BMP280;65855;42.030;13.078;2023-06-22T10:49:21;94236.31;;;39.07
76895;BMP280;65855;42.030;13.078;2023-06-22T10:51:47;94235.72;;;39.47
76895;BMP280;65855;42.030;13.078;2023-06-22T10:54:12;94234.28;;;39.37
76895;BMP280;65855;42.030;13.078;2023-06-22T10:56:39;94230.59;;;39.26
76895;BMP280;65855;42.030;13.078;2023-06-22T10:59:05;94224.56;;;39.25
76895;BMP280;65855;42.030;13.078;2023-06-22T11:01:30;94233.19;;;38.82
76895;BMP280;65855;42.030;13.078;2023-06-22T11:03:59;94230.97;;;38.63
76895;BMP280;65855;42.030;13.078;2023-06-22T11:06:24;94235.91;;;38.13
76895;BMP280;65855;42.030;13.078;2023-06-22T11:08:50;94234.69;;;38.44
76895;BMP280;65855;42.030;13.078;2023-06-22T11:11:15;94230.69;;;38.70
76895;BMP280;65855;42.030;13.078;2023-06-22T11:13:43;94242.81;;;38.20
76895;BMP280;65855;42.030;13.078;2023-06-22T11:16:09;94233.16;;;38.55
76895;BMP280;65855;42.030;13.078;2023-06-22T11:18:35;94231.63;;;39.20
76895;BMP280;65855;42.030;13.078;2023-06-22T11:21:00;94228.22;;;39.28
76895;BMP280;65855;42.030;13.078;2023-06-22T11:23:25;94230.75;;;39.40
76895;BMP280;65855;42.030;13.078;2023-06-22T11:25:53;94226.03;;;39.62
76895;BMP280;65855;42.030;13.078;2023-06-22T11:28:18;94226.03;;;39.53
76895;BMP280;65855;42.030;13.078;2023-06-22T11:30:44;94225.31;;;39.44
76895;BMP280;65855;42.030;13.078;2023-06-22T11:33:09;94228.22;;;39.28
76895;BMP280;65855;42.030;13.078;2023-06-22T11:35:34;94235.94;;;38.70
76895;BMP280;65855;42.030;13.078;2023-06-22T11:38:00;94240.69;;;38.06
76895;BMP280;65855;42.030;13.078;2023-06-22T11:40:25;94234.63;;;37.67
76895;BMP280;65855;42.030;13.078;2023-06-22T11:42:51;94235.47;;;37.64
76895;BMP280;65855;42.030;13.078;2023-06-22T11:45:17;94241.69;;;37.70
76895;BMP280;65855;42.030;13.078;2023-06-22T11:47:44;94239.44;;;37.05
76895;BMP280;65855;42.030;13.078;2023-06-22T11:50:09;94237.03;;;38.42
76895;BMP280;65855;42.030;13.078;2023-06-22T11:52:35;94236.31;;;39.16
76895;BMP280;65855;42.030;13.078;2023-06-22T11:55:04;94237.56;;;38.67
76895;BMP280;65855;42.030;13.078;2023-06-22T11:57:33;94235.94;;;38.61
76895;BMP280;65855;42.030;13.078;2023-06-22T11:59:58;94244.03;;;36.68
76895;BMP280;65855;42.030;13.078;2023-06-22T12:02:23;94238.00;;;37.67
76895;BMP280;65855;42.030;13.078;2023-06-22T12:04:49;94238.75;;;38.27
76895;BMP280;65855;42.030;13.078;2023-06-22T12:07:17;94235.59;;;37.39
76895;BMP280;65855;42.030;13.078;2023-06-22T12:09:43;94234.59;;;36.21
76895;BMP280;65855;42.030;13.078;2023-06-22T12:12:09;94239.44;;;35.02
76895;BMP280;65855;42.030;13.078;2023-06-22T12:14:34;94234.47;;;36.25
76895;BMP280;65855;42.030;13.078;2023-06-22T12:17:00;94230.03;;;37.58
76895;BMP280;65855;42.030;13.078;2023-06-22T12:19:25;94219.88;;;38.38
76895;BMP280;65855;42.030;13.078;2023-06-22T12:21:51;94227.22;;;38.99
76895;BMP280;65855;42.030;13.078;2023-06-22T12:24:16;94219.56;;;39.54
76895;BMP280;65855;42.030;13.078;2023-06-22T12:26:41;94223.22;;;39.65
76895;BMP280;65855;42.030;13.078;2023-06-22T12:29:07;94217.00;;;39.95
76895;BMP280;65855;42.030;13.078;2023-06-22T12:31:33;94214.44;;;40.18
76895;BMP280;65855;42.030;13.078;2023-06-22T12:33:58;94218.38;;;38.75
76895;BMP280;65855;42.030;13.078;2023-06-22T12:36:24;94218.34;;;37.38
76895;BMP280;65855;42.030;13.078;2023-06-22T12:38:49;94216.63;;;38.90
76895;BMP280;65855;42.030;13.078;2023-06-22T12:41:16;94215.72;;;39.81
76895;BMP280;65855;42.030;13.078;2023-06-22T12:43:42;94218.53;;;40.19
76895;BMP280;65855;42.030;13.078;2023-06-22T12:46:07;94224.63;;;40.01
76895;BMP280;65855;42.030;13.078;2023-06-22T12:48:33;94226.03;;;40.11
76895;BMP280;65855;42.030;13.078;2023-06-22T12:50:58;94223.56;;;39.99
76895;BMP280;65855;42.030;13.078;2023-06-22T12:53:24;94225.88;;;40.23
76895;BMP280;65855;42.030;13.078;2023-06-22T12:55:49;94230.41;;;39.82
76895;BMP280;65855;42.030;13.078;2023-06-22T12:58:14;94224.06;;;38.65
76895;BMP280;65855;42.030;13.078;2023-06-22T13:00:40;94231.69;;;38.54
76895;BMP280;65855;42.030;13.078;2023-06-22T13:03:05;94221.34;;;39.22
76895;BMP280;65855;42.030;13.078;2023-06-22T13:05:31;94229.91;;;39.93
76895;BMP280;65855;42.030;13.078;2023-06-22T13:07:57;94232.75;;;39.80
76895;BMP280;65855;42.030;13.078;2023-06-22T13:10:22;94225.41;;;39.67
76895;BMP280;65855;42.030;13.078;2023-06-22T13:12:47;94228.28;;;40.04
76895;BMP280;65855;42.030;13.078;2023-06-22T13:15:13;94229.25;;;40.56
76895;BMP280;65855;42.030;13.078;2023-06-22T13:17:38;94231.63;;;40.54
76895;BMP280;65855;42.030;13.078;2023-06-22T13:20:04;94228.91;;;37.89
76895;BMP280;65855;42.030;13.078;2023-06-22T13:22:32;94228.56;;;35.72
76895;BMP280;65855;42.030;13.078;2023-06-22T13:24:59;94225.59;;;38.45
76895;BMP280;65855;42.030;13.078;2023-06-22T13:27:25;94230.16;;;37.34
76895;BMP280;65855;42.030;13.078;2023-06-22T13:29:51;94222.75;;;38.61
76895;BMP280;65855;42.030;13.078;2023-06-22T13:32:16;94232.94;;;40.09
76895;BMP280;65855;42.030;13.078;2023-06-22T13:34:42;94229.34;;;40.29
76895;BMP280;65855;42.030;13.078;2023-06-22T13:37:08;94228.25;;;39.46
76895;BMP280;65855;42.030;13.078;2023-06-22T13:39:33;94231.94;;;37.58
76895;BMP280;65855;42.030;13.078;2023-06-22T13:41:59;94229.72;;;36.69
76895;BMP280;65855;42.030;13.078;2023-06-22T13:44:24;94234.13;;;37.59
76895;BMP280;65855;42.030;13.078;2023-06-22T13:46:57;94227.16;;;38.64
76895;BMP280;65855;42.030;13.078;2023-06-22T13:49:22;94225.00;;;39.15
76895;BMP280;65855;42.030;13.078;2023-06-22T13:51:48;94229.78;;;39.87
76895;BMP280;65855;42.030;13.078;2023-06-22T13:54:14;94232.72;;;40.30
76895;BMP280;65855;42.030;13.078;2023-06-22T13:56:39;94222.16;;;39.80
76895;BMP280;65855;42.030;13.078;2023-06-22T13:59:05;94236.81;;;40.40
76895;BMP280;65855;42.030;13.078;2023-06-22T14:01:32;94225.75;;;38.98
76895;BMP280;65855;42.030;13.078;2023-06-22T14:03:57;94223.03;;;39.86
76895;BMP280;65855;42.030;13.078;2023-06-22T14:06:22;94222.50;;;38.85
76895;BMP280;65855;42.030;13.078;2023-06-22T14:08:48;94218.13;;;38.35
76895;BMP280;65855;42.030;13.078;2023-06-22T14:11:14;94223.31;;;37.87
76895;BMP280;65855;42.030;13.078;2023-06-22T14:13:40;94228.13;;;37.59
76895;BMP280;65855;42.030;13.078;2023-06-22T14:16:07;94217.69;;;38.36
76895;BMP280;65855;42.030;13.078;2023-06-22T14:18:32;94225.06;;;37.18